Flight Track Log - Related Links

Times and Time Zones

All times are in EST time to prevent confusion due to time zone crossing. See the ASQ6115 flight status page for this flight to view local times or setup timezone preferences in your user account.

Time Position Orientation Groundspeed Altitude Reporting Facility
EST Latitude Longitude Course Direction KTS MPH feet Rate Location/Type
Wed 06:01:41 PM 42.0333 -87.8833 North 203 234 3,200  Level Chicago TRACON
Wed 06:02:47 PM 42.1167 -87.8500 17° North 274 315 5,000 1,091 Climbing Chicago TRACON
Wed 06:03:20 PM 42.1469 -87.8344 21° North 270 311 5,000 1,250 Level Chicago Center
Wed 06:04:23 PM 42.2244 -87.8242 North 282 325 7,000 2,112 Climbing Chicago Center
Wed 06:05:00 PM 42.2844 -88.2761 345° North  Level Estimated
Wed 06:05:25 PM 42.3056 -87.8244 360° North 292 336 9,400  Level Chicago Center
Wed 06:06:00 PM 42.3661 -88.2685 North  Level FlightAware Approximate
Wed 06:06:27 PM 42.4028 -87.8261 359° North 311 358 12,000  Level Chicago Center
Wed 06:07:29 PM 42.5003 -87.8264 360° North 346 398 12,700 677 Climbing Chicago Center
Wed 06:08:31 PM 42.5983 -87.8856 336° Northwest 384 442 13,400 629 Climbing Chicago Center
Wed 06:09:33 PM 42.6850 -88.0122 313° West 388 447 14,000 290 Climbing Chicago Center
Wed 06:10:35 PM 42.7294 -88.1417 295° West 378 435 14,000  Level Chicago Center
Wed 06:11:37 PM 42.7747 -88.2692 296° West 375 432 14,000  Level Chicago Center
Wed 06:12:39 PM 42.8186 -88.3947 296° West 368 423 14,000  Level Chicago Center
Wed 06:13:41 PM 42.8642 -88.5272 295° West 381 438 14,000  Level Chicago Center
Wed 06:14:44 PM 42.9086 -88.6594 295° West 383 441 14,000 -624 Level Chicago Center
Wed 06:15:46 PM 42.9642 -88.8164 296° West 380 437 12,700 -1,161 Descending Chicago Center
Wed 06:16:48 PM 43.0058 -88.9394 295° West 362 417 11,600 -1,016 Descending Chicago Center
Wed 06:17:50 PM 43.0628 -89.0311 310° West 333 383 10,600 -1,306 Descending Chicago Center
Wed 06:18:52 PM 43.1183 -89.1033 317° Northwest 295 339 8,900 -2,081 Descending Chicago Center
Wed 06:19:54 PM 43.1803 -89.1447 334° Northwest 268 308 6,300 -2,419 Descending Chicago Center
Wed 06:20:56 PM 43.2492 -89.1772 341° North 264 304 3,900 -1,597 Descending Chicago Center
Wed 06:21:58 PM 43.2936 -89.2347 317° Northwest 250 288 3,000 -435 Descending Chicago Center
Wed 06:23:00 PM 43.2911 -89.3289 268° West 223 257 3,000 -48 Level Chicago Center
Wed 06:24:03 PM 43.2444 -89.3392 189° South 188 216 2,900 -384 Descending Chicago Center
Wed 06:25:05 PM 43.2075 -89.3397 181° South 159 183 2,200 -677 Descending Chicago Center
Wed 06:26:07 PM 43.1739 -89.3408 181° South 138 159 1,500 -484 Descending Chicago Center
Wed 06:27:09 PM 43.1331 -89.3433 183° South 133 153 1,200 -290 Descending Chicago Center

Login

Don't have an account? Register now (free) for customized features, flight alerts, and more!